Tiempo atmosférico en la estación meteorológica de Castellón de la Plana, Almazora, Castelló/Castellón (35 m.)



Fecha
DESCASC
Temp. máxima en grados centígrados (hora)
DESCASC
Temp. mínima en grados centígrados (hora)
DESCASC
Temp. media en grados centígrados
DESCASC
Racha de viento máxima en m/sg (hora)
DESCASC
Velocidad máxima media en intervalos de 10 minutos(hora)
DESCASC
Precipitaciones diarias en mm
DESCASC
Precipitaciones de 00:00 a 06:00 en mm
DESCASC
Precipitaciones de 06:00 a 12:00 en mm
DESCASC
Precipitaciones de 12:00 a 18:00 en mm
DESCASC
Precipitaciones de 18:00 a 24:00 en mm
DESCASC

Gráficas

Temp. máximas Temp. mínimas Temp. medias Precipitaciones Rachas de viento máximas Velocidades máximas media en intervalos de 10 minutos

Datos horarios

Fecha y hora oficial Temperatura (ºC) Velocidad del viento (km/h) Dirección del viento Racha (km/h) Dirección de racha Precipitación (mm) Presión (hPa) Tendencia (hPa) Humedad (%)
2018-05-23 23:00:00 20.4 0 Calma 7 Nordeste 0 1012.3 1 64
2018-05-23 22:00:00 20.4 4 Nordeste 6 Nordeste 0 1011.8 0.9 73
2018-05-23 21:00:00 20.8 5 Sudeste 12 Sudeste 0 1011.9 1.1 74
2018-05-23 20:00:00 21.7 7 Este 13 Este 0 1011.3 0.4 60
2018-05-23 19:00:00 21.7 8 Este 19 Este 0 1010.9 -0.1 72
2018-05-23 18:00:00 22.5 10 Sudeste 21 Este 0 1010.8 -0.7 69
2018-05-23 17:00:00 23.4 10 Este 24 Este 0 1010.9 -0.9 68
2018-05-23 16:00:00 23.6 14 Este 25 Este 0 1011 -0.9 68
2018-05-23 15:00:00 23.9 11 Este 28 Este 0 1011.5 -0.5 65
2018-05-23 14:00:00 23.5 13 Sudeste 24 Sudeste 0 1011.8 -0.3 64
2018-05-23 13:00:00 24.1 11 Sudeste 21 Este 0 1011.9 -0.2 61
2018-05-23 12:00:00 23.2 8 Este 17 Sudeste 0 1012 0 67
2018-05-23 11:00:00 22.3 6 Este 14 Sudeste 0 1012.1 0.6 69
2018-05-23 10:00:00 21.8 5 Este 12 Este 0 1012.1 1.2 70
2018-05-23 09:00:00 19.6 3 Norte 8 Noroeste 0 1012 1.4 80
2018-05-23 08:00:00 17.5 4 Noroeste 10 Oeste 0 1011.5 0.9 85
2018-05-23 07:00:00 16.6 4 Noroeste 7 Noroeste 0 1010.9 0.4 87
2018-05-23 06:00:00 17.1 3 Norte 6 Noroeste 0 1010.6 0.2 85
2018-05-23 05:00:00 17.6 2 Noroeste 5 Norte 0 1010.6 -0.1 84
2018-05-23 04:00:00 17.4 2 Noroeste 7 Noroeste 0 1010.5 -0.2 85
2018-05-23 03:00:00 17.5 3 Noroeste 6 Norte 0 1010.4 -0.2 86
2018-05-23 02:00:00 17.7 3 Noroeste 5 Norte 0 1010.7 0.3 86
2018-05-23 01:00:00 17.8 3 Noroeste 6 Noroeste 0 1010.7 1.2 84
2018-05-23 00:00:00 18.4 0 Calma 5 Nordeste 0 1010.6 1.6 85
2018-05-22 23:00:00 19 5 Nordeste 8 Nordeste 0 1010.4 1.6 85
2018-05-22 22:00:00 19.3 3 Sudeste 10 Sudeste 0 1009.5 1.2 83
2018-05-22 21:00:00 20.3 6 Sur 13 Sur 0 1009 0.5 80
2018-05-22 20:00:00 21.2 7 Sur 15 Sur 0 1008.8 -0.1 71
2018-05-22 19:00:00 22.1 9 Sur 17 Sur 0 1008.3 -0.6 69
2018-05-22 18:00:00 22.6 6 Sur 10 Sudeste 0 1008.5 -0.5 70
2018-05-22 17:00:00 21.7 5 Norte 12 Norte 0 1008.9 -0.2 73
2018-05-22 16:00:00 20.9 2 Sudoeste 9 Este 0 1008.9 0.8 79
2018-05-22 15:00:00 20.2 4 Este 18 Este 2 1009 0.9 83
2018-05-22 14:00:00 22.9 8 Sudeste 22 Este 0 1009.1 1.3 62
2018-05-22 13:00:00 24.5 12 Este 22 Este 0 1008.1 0.2 56
2018-05-22 12:00:00 24.8 10 Sudeste 18 Este 0 1008.1 0.3 52
2018-05-22 11:00:00 24.2 3 Sudeste 11 Este 0 1007.8 0.4 46
2018-05-22 10:00:00 22.1 4 Sudeste 8 Sudeste 0 1007.9 1.1 54
2018-05-22 09:00:00 18.8 4 Noroeste 17 Oeste 0 1007.8 1.5 66
2018-05-22 08:00:00 16 10 Oeste 17 Oeste 0 1007.4 1.2 78
2018-05-22 07:00:00 14.9 7 Noroeste 15 Oeste 0 1006.8 0.5 85
2018-05-22 06:00:00 15.5 6 Oeste 15 Oeste 0 1006.3 -0.1 84
2018-05-22 05:00:00 15.8 5 Noroeste 13 Oeste 0 1006.2 -0.5 83
2018-05-22 04:00:00 16.2 8 Oeste 13 Oeste 0 1006.3 -0.7 83
2018-05-22 03:00:00 16.7 6 Oeste 8 Oeste 0 1006.4 -0.9 82
2018-05-22 02:00:00 16.9 3 Noroeste 6 Noroeste 0 1006.7 -0.6 82
2018-05-22 01:00:00 17.9 3 Noroeste 6 Noroeste 0 1007 0.3 80
2018-05-22 00:00:00 18.2 3 Este 6 Nordeste 0 1007.3 1.2 82
2018-05-21 23:00:00 18.3 4 Este 7 Este 0 1007.3 1.6 81
2018-05-21 22:00:00 18.5 3 Sur 10 Sur 0 1006.7 1.2 79
2018-05-21 21:00:00 19.6 6 Sur 13 Sudeste 0 1006.1 0.8 73
2018-05-21 20:00:00 20.8 6 Sur 12 Sur 0 1005.7 -0.1 66
2018-05-21 19:00:00 20.6 6 Sur 12 Sudoeste 0 1005.5 -0.4 70
2018-05-21 18:00:00 21.2 6 Sur 15 Sur 0 1005.3 -0.7 68
2018-05-21 17:00:00 22.4 7 Sur 23 Este 0 1005.8 -0.3 61
2018-05-21 16:00:00 22.5 12 Sudeste 21 Sudeste 0 1005.9 -0.6 62
2018-05-21 15:00:00 23.1 9 Sudeste 26 Sudeste 0 1006 -0.5 59
2018-05-21 14:00:00 22.7 13 Este 24 Sudeste 0 1006.1 -0.4 61
2018-05-21 13:00:00 23.2 14 Sudeste 26 Sudeste 0 1006.5 -0.3 56
2018-05-21 12:00:00 22.8 12 Sudeste 24 Sudeste 0 1006.5 -0.4 59
2018-05-21 11:00:00 22.9 9 Este 17 Este 0 1006.5 -0.4 51
2018-05-21 10:00:00 21.3 4 Sudeste 9 Sudeste 0 1006.8 0.3 59
2018-05-21 09:00:00 19.1 4 Sudeste 10 Oeste 0 1006.9 0.4 73
2018-05-21 08:00:00 15.5 3 Oeste 8 Noroeste 0 1006.9 0.5 76
2018-05-21 07:00:00 14.8 7 Noroeste 13 Noroeste 0 1006.5 -0.1 77
2018-05-21 06:00:00 15.1 7 Oeste 13 Oeste 0 1006.5 -0.3 77
2018-05-21 05:00:00 15.3 6 Oeste 12 Oeste 0 1006.4 -0.9 76
2018-05-21 04:00:00 15.7 6 Noroeste 15 Oeste 0 1006.6 -1.3 75
2018-05-21 03:00:00 15.8 5 Noroeste 16 Oeste 0 1006.8 -1.5 73
2018-05-21 02:00:00 16.4 8 Oeste 14 Oeste 0 1007.3 -0.9 72
2018-05-21 01:00:00 17.3 4 Noroeste 9 Noroeste 0 1007.9 -0.1 76
2018-05-21 00:00:00 18.4 6 Noroeste 10 Oeste 0 1008.3 0.5 73
2018-05-20 23:00:00 18.8 3 Nordeste 7 Nordeste 0 1008.2 1 74
2018-05-20 22:00:00 19.3 3 Este 10 Este 0 1008 0.9 69
2018-05-20 21:00:00 20.2 5 Este 14 Este 0 1007.8 0.7 70
2018-05-20 20:00:00 21.4 5 Este 17 Este 0 1007.2 -0.3 61
2018-05-20 19:00:00 22.3 9 Este 20 Este 0 1007.1 -0.9 58
2018-05-20 18:00:00 23.4 8 Este 21 Sudeste 0 1007.1 -1.4 54
2018-05-20 17:00:00 24 9 Este 23 Sudeste 0 1007.5 -1.5 50
2018-05-20 16:00:00 24.8 10 Este 24 Este 0 1008 -1.2 46
2018-05-20 15:00:00 24.3 13 Este 24 Este 0 1008.5 -0.9 48
2018-05-20 14:00:00 24 14 Sudeste 26 Sudeste 0 1009 -0.7 49
2018-05-20 13:00:00 24.2 15 Este 23 Sudeste 0 1009.2 -0.5 47
2018-05-20 12:00:00 24.3 9 Este 21 Sudeste 0 1009.4 -0.4 44
2018-05-20 11:00:00 23.6 9 Este 20 Este 0 1009.7 0.2 47
2018-05-20 10:00:00 21.8 5 Este 11 Este 0 1009.7 0.5 53
2018-05-20 09:00:00 18.2 2 Noroeste 9 Noroeste 0 1009.8 0.8 65
2018-05-20 08:00:00 14.9 4 Noroeste 9 Noroeste 0 1009.5 0.4 68
2018-05-20 07:00:00 14 4 Noroeste 13 Oeste 0 1009.2 -0.5 73
2018-05-20 06:00:00 14.6 8 Oeste 12 Oeste 0 1009 -1.5 73
2018-05-20 05:00:00 14.9 6 Oeste 13 Oeste 0 1009.1 -1.7 75
2018-05-20 04:00:00 14.9 8 Oeste 13 Oeste 0 1009.7 -1.2 78
2018-05-20 03:00:00 15.3 4 Noroeste 8 Noroeste 0 1010.5 -0.5 77
2018-05-20 02:00:00 16 4 Norte 6 Norte 0 1010.8 -0.1 77
2018-05-20 01:00:00 16.8 3 Noroeste 7 Noroeste 0 1010.9 0.6 73
2018-05-20 00:00:00 17.7 3 Noroeste 5 Sudoeste 0 1011 1.2 77
2018-05-19 23:00:00 18 3 Sur 7 Sur 0 1010.9 1.5 77
2018-05-19 22:00:00 18.7 4 Sur 9 Sur 0 1010.3 0.9 73
2018-05-19 21:00:00 19.9 8 Sur 13 Sur 0 1009.8 0.3 68
2018-05-19 20:00:00 21.7 8 Sudeste 15 Sur 0 1009.4 -0.3 56
2018-05-19 19:00:00 22.8 8 Sudeste 18 Sur 0 1009.4 -0.7 53
2018-05-19 18:00:00 23.6 9 Sudeste 21 Este 0 1009.5 -1.3 50
2018-05-19 17:00:00 23.6 8 Este 21 Sudeste 0 1009.7 -1.5 46
2018-05-19 16:00:00 24 8 Este 23 Este 0 1010.1 -1.4 47
2018-05-19 15:00:00 24.1 10 Sudeste 25 Sudeste 0 1010.8 -0.8 45
2018-05-19 14:00:00 24 12 Sudeste 23 Este 0 1011.2 -0.4 46
2018-05-19 13:00:00 23.5 15 Sudeste 26 Sudeste 0 1011.5 0 48
2018-05-19 12:00:00 24 10 Sudeste 21 Este 0 1011.6 0.4 46
2018-05-19 11:00:00 23.1 9 Sudeste 17 Sudeste 0 1011.6 0.8 49
2018-05-19 10:00:00 21 5 Sudeste 11 Sudeste 0 1011.5 1.1 61
2018-05-19 09:00:00 17.9 3 Nordeste 15 Oeste 0 1011.2 0.8 66
2018-05-19 08:00:00 15.3 8 Noroeste 17 Oeste 0 1010.8 0.1 68
2018-05-19 07:00:00 14.3 12 Oeste 20 Oeste 0 1010.4 -0.5 73
2018-05-19 06:00:00 14.1 10 Noroeste 16 Oeste 0 1010.4 -0.9 75
2018-05-19 05:00:00 14.6 8 Noroeste 18 Oeste 0 1010.7 -0.8 72
2018-05-19 04:00:00 15.2 8 Oeste 17 Noroeste 0 1010.9 -0.8 71
2018-05-19 03:00:00 15.5 8 Oeste 14 Oeste 0 1011.3 -0.6 69
2018-05-19 02:00:00 15.6 4 Noroeste 9 Oeste 0 1011.5 -0.4 73
2018-05-19 01:00:00 16.3 3 Noroeste 9 Noroeste 0 1011.7 0.4 74
2018-05-19 00:00:00 17.2 3 Norte 5 Norte 0 1011.9 1.1 73
2018-05-18 23:00:00 17.8 3 Nordeste 6 Este 0 1011.9 1.4 75
2018-05-18 22:00:00 18 3 Nordeste 8 Nordeste 0 1011.3 0.8 74
2018-05-18 21:00:00 19.2 4 Este 14 Este 0 1010.8 0.2 68
2018-05-18 20:00:00 20.7 8 Este 15 Este 0 1010.5 -0.3 54
2018-05-18 19:00:00 21.4 7 Este 17 Sudeste 0 1010.5 -0.7 52
2018-05-18 18:00:00 21.1 10 Este 22 Este 0 1010.6 -0.6 52
2018-05-18 17:00:00 22.4 11 Este 23 Sudeste 0 1010.8 -0.8 47
2018-05-18 16:00:00 21.6 18 Este 27 Este 0 1011.2 -0.6 50
2018-05-18 15:00:00 23.1 15 Este 29 Este 0 1011.2 -0.5 49
2018-05-18 14:00:00 23 10 Este 28 Este 0 1011.6 0.3 44
2018-05-18 13:00:00 22.1 13 Este 26 Este 0 1011.8 0.4 44
2018-05-18 12:00:00 21.6 11 Este 23 Este 0 1011.7 0.7 58
2018-05-18 11:00:00 20.8 6 Este 19 Este 0 1011.3 0.7 61
2018-05-18 10:00:00 19.7 9 Este 21 Este 0 1011.4 1.1 73
2018-05-18 09:00:00 19 5 Nordeste 13 Nordeste 0 1011 0.9 62
2018-05-18 08:00:00 16 5 Oeste 12 Oeste 0 1010.6 0.6 67
2018-05-18 07:00:00 15.3 8 Noroeste 17 Oeste 0 1010.3 0 70
2018-05-18 06:00:00 14.3 4 Sudoeste 10 Noroeste 0 1010.1 -0.6 78
2018-05-18 05:00:00 14.9 5 Noroeste 9 Noroeste 0 1010 -1.3 72
2018-05-18 04:00:00 15.6 3 Noroeste 10 Oeste 0 1010.3 -1.5 73
2018-05-18 03:00:00 16.2 8 Oeste 12 Oeste 0 1010.7 -1.1 77
2018-05-18 02:00:00 16.8 3 Noroeste 8 Noroeste 0 1011.3 0 71
2018-05-18 01:00:00 17.5 0 Calma 8 Este 0 1011.8 1.3 81
2018-05-18 00:00:00 17.9 6 Sudeste 9 Sudeste 0 1011.8 1.7 79
2018-05-17 23:00:00 18 5 Este 9 Sur 0 1011.3 1.8 76
2018-05-17 22:00:00 18.6 5 Sudeste 12 Sur 0 1010.5 0.9 69
2018-05-17 21:00:00 19.2 7 Sur 14 Sur 0 1010.1 0.6 67
2018-05-17 20:00:00 20.9 8 Sur 18 Sur 0 1009.5 0 52
2018-05-17 19:00:00 22.1 11 Sur 22 Sudeste 0 1009.6 -0.1 44
2018-05-17 18:00:00 23.1 10 Sur 20 Sur 0 1009.5 -0.5 49
2018-05-17 17:00:00 22.7 10 Sudeste 21 Sudeste 0 1009.5 -0.7 50
2018-05-17 16:00:00 23.4 10 Sudeste 22 Este 0 1009.7 -0.6 50
2018-05-17 15:00:00 23.2 11 Sudeste 24 Sudeste 0 1010 -0.6 49
2018-05-17 14:00:00 22.4 13 Este 23 Sudeste 0 1010.2 -0.1 50
2018-05-17 13:00:00 22.5 11 Este 22 Sudeste 0 1010.3 0.1 51
2018-05-17 12:00:00 21.7 10 Este 23 Este 0 1010.6 0.4 56
2018-05-17 11:00:00 21.5 9 Este 21 Sudeste 0 1010.3 0.1 53
2018-05-17 10:00:00 20.5 7 Este 13 Este 0 1010.2 0.1 51
2018-05-17 09:00:00 18.1 5 Este 10 Este 0 1010.2 0.2 64
2018-05-17 08:00:00 14.3 4 Noroeste 16 Oeste 0 1010.2 -0.1 63
2018-05-17 07:00:00 13.6 7 Noroeste 17 Oeste 0 1010.1 -0.1 67
2018-05-17 06:00:00 13.4 6 Noroeste 14 Oeste 0 1010 -0.2 69
2018-05-17 05:00:00 13.7 4 Noroeste 8 Noroeste 0 1010.3 0 67
2018-05-17 04:00:00 14.6 4 Noroeste 10 Oeste 0 1010.2 -0.3 67
2018-05-17 03:00:00 15 6 Oeste 9 Oeste 0 1010.2 -0.3 65
2018-05-17 02:00:00 15.7 4 Oeste 8 Oeste 0 1010.3 -0.1 64
2018-05-17 01:00:00 15.9 5 Noroeste 7 Noroeste 0 1010.5 0.4 70
2018-05-17 00:00:00 16.4 3 Noroeste 6 Sudoeste 0 1010.5 0.5 70
2018-05-16 23:00:00 16.9 3 Sudoeste 9 Sudoeste 0 1010.4 0.6 69
2018-05-16 22:00:00 17.6 4 Sudoeste 6 Sudoeste 0 1010.1 0.2 60
2018-05-16 21:00:00 18.8 4 Sur 13 Sur 0 1010 0 64
2018-05-16 20:00:00 20.7 6 Sur 16 Sur 0 1009.8 -0.4 54
2018-05-16 19:00:00 21.8 8 Sur 18 Este 0 1009.9 -0.8 47
2018-05-16 18:00:00 22.5 9 Sudeste 19 Este 0 1010 -1.2 46
2018-05-16 17:00:00 22.9 9 Sudeste 23 Sudeste 0 1010.2 -1.4 45
2018-05-16 16:00:00 22.5 13 Sudeste 28 Sudeste 0 1010.7 -1.3 47
2018-05-16 15:00:00 23 12 Sudeste 23 Este 0 1011.2 -0.8 47
2018-05-16 14:00:00 22.9 11 Sudeste 23 Este 0 1011.6 -0.2 49
2018-05-16 13:00:00 22.5 12 Este 21 Sudeste 0 1012 0.4 45
2018-05-16 12:00:00 21.8 12 Este 23 Sudeste 0 1012 0.7 48
2018-05-16 11:00:00 21.6 9 Sudeste 19 Sudeste 0 1011.8 0.7 47
2018-05-16 10:00:00 20.9 8 Este 13 Este 0 1011.6 0.9 48
2018-05-16 09:00:00 18.1 2 Norte 12 Sur 0 1011.3 0.7 57
2018-05-16 08:00:00 14.6 6 Noroeste 12 Noroeste 0 1011.1 0.4 62
2018-05-16 07:00:00 13.2 5 Noroeste 11 Noroeste 0 1010.7 -0.1 69
2018-05-16 06:00:00 13.4 6 Noroeste 9 Oeste 0 1010.6 0 69
2018-05-16 05:00:00 14.4 5 Noroeste 8 Noroeste 0 1010.7 -0.5 77
2018-05-16 04:00:00 14.5 6 Noroeste 16 Oeste 0 1010.8 -0.7 65
2018-05-16 03:00:00 14.9 8 Oeste 15 Oeste 0 1010.6 -1 67
2018-05-16 02:00:00 14.9 9 Oeste 14 Noroeste 0 1011.2 -0.2 71
2018-05-16 01:00:00 15.6 6 Oeste 12 Noroeste 0 1011.5 0.5 74
2018-05-16 00:00:00 16 3 Oeste 9 Sudoeste 0 1011.6 1 76
2018-05-15 23:00:00 16.2 4 Sudoeste 6 Sudoeste 0 1011.4 1.2 76
2018-05-15 22:00:00 16.7 3 Sudoeste 10 Sur 0 1011 1.1 72
2018-05-15 21:00:00 17.9 8 Sur 18 Sur 0 1010.6 0.6 65
2018-05-15 20:00:00 19.5 9 Sur 22 Sudeste 0 1010.2 0 56
2018-05-15 19:00:00 20.6 12 Sur 23 Sur 0 1009.9 -0.6 49
2018-05-15 18:00:00 21.9 11 Sur 25 Sur 0 1010 -1 44
2018-05-15 17:00:00 22.5 13 Sudeste 24 Sudeste 0 1010.2 -1.3 38
2018-05-15 16:00:00 23.1 14 Sudeste 26 Sur 0 1010.5 -1.3 37
2018-05-15 15:00:00 23.1 13 Sudeste 26 Este 0 1011 -1 39
2018-05-15 14:00:00 22.4 12 Sur 27 Sudeste 0 1011.5 -0.7 38
2018-05-15 13:00:00 23 12 Sur 25 Sur 0 1011.8 -0.6 36
2018-05-15 12:00:00 21.9 13 Sur 25 Sur 0 1012 -0.4 36
2018-05-15 11:00:00 20.8 8 Sudoeste 15 Sudoeste 0 1012.2 -0.2 32
2018-05-15 10:00:00 18.4 8 Oeste 15 Oeste 0 1012.4 0.1 34
2018-05-15 09:00:00 16 8 Noroeste 21 Oeste 0 1012.4 0.5 39
2018-05-15 08:00:00 13.7 13 Oeste 23 Oeste 0 1012.4 0.2 46
2018-05-15 07:00:00 12.7 13 Oeste 19 Noroeste 0 1012.3 0 48
2018-05-15 06:00:00 13 10 Noroeste 21 Oeste 0 1011.9 -0.7 47
2018-05-15 05:00:00 13.3 7 Oeste 19 Oeste 0 1012.2 -0.6 50
2018-05-15 04:00:00 14 12 Oeste 19 Oeste 0 1012.3 -0.5 49
2018-05-15 03:00:00 14.9 10 Norte 18 Norte 0 1012.6 -0.4 44
2018-05-15 02:00:00 14.3 4 Oeste 11 Oeste 0 1012.8 -0.1 59
2018-05-15 01:00:00 14.8 5 Noroeste 15 Oeste 0 1012.8 0.9 64
2018-05-15 00:00:00 15.4 3 Noroeste 9 Noroeste 0 1013 2.1 70
2018-05-14 23:00:00 16.4 3 Este 8 Este 0 1012.9 2.8 69
2018-05-14 22:00:00 16.9 4 Sudeste 9 Este 0 1011.9 2.3 68
2018-05-14 21:00:00 17.7 4 Sur 15 Sur 0 1010.9 1.7 63
2018-05-14 20:00:00 19.2 9 Sur 19 Sur 0 1010.1 0.7 57
2018-05-14 19:00:00 20.5 12 Sur 26 Sur 0 1009.6 -0.5 50
2018-05-14 18:00:00 22.3 12 Sur 21 Sur 0 1009.2 -1.2 33
2018-05-14 17:00:00 22 11 Sudeste 23 Sudeste 0 1009.4 -1.2 33
2018-05-14 16:00:00 21.6 11 Sudeste 24 Sudeste 0 1010.1 -1 35
2018-05-14 15:00:00 22.7 11 Sur 25 Este 0 1010.4 -0.1 35
2018-05-14 14:00:00 21.2 13 Sudeste 32 Sudeste 0 1010.6 -0.3 35
2018-05-14 13:00:00 19.7 14 Sudeste 31 Este 0 1011.1 -0.1 38
2018-05-14 12:00:00 20.9 11 Este 26 Este 0 1010.5 -1.5 34
2018-05-14 11:00:00 20.3 6 Oeste 22 Oeste 0 1010.9 -0.9 32
2018-05-14 10:00:00 18.4 13 Sudoeste 21 Sudoeste 0 1011.2 -0.5 37
2018-05-14 09:00:00 15.9 3 Noroeste 13 Noroeste 0 1012 0.4 42
2018-05-14 08:00:00 15.6 6 Noroeste 15 Oeste 0 1011.8 0.2 41
2018-05-14 07:00:00 15.5 10 Oeste 20 Oeste 0 1011.7 -0.3 42
2018-05-14 06:00:00 14.7 10 Oeste 17 Oeste 0 1011.6 -1 44
2018-05-14 05:00:00 14.4 9 Oeste 16 Oeste 0 1011.6 -1.6 47
2018-05-14 04:00:00 13.9 11 Oeste 17 Oeste 0 1012 -1.4 51
2018-05-14 03:00:00 13.2 10 Oeste 17 Oeste 0 1012.6 -0.9 55
2018-05-14 02:00:00 13.1 4 Noroeste 11 Noroeste 0 1013.2 -0.1 61
2018-05-14 01:00:00 13.5 4 Noroeste 9 Oeste 0 1013.4 0.6 63
2018-05-11 20:00:00 20.2 7 Sudeste 15 Sur 0 1009.9 -0.2 73
2018-05-11 19:00:00 21.5 10 Sudeste 22 Sudeste 0 1009.9 -0.6 66
2018-05-11 18:00:00 22.5 10 Sudeste 27 Este 0 1010 -1 63
2018-05-11 17:00:00 22.7 14 Sudeste 29 Sudeste 0 1010.1 -1.5 61
2018-05-11 16:00:00 23.5 14 Sudeste 27 Este 0 1010.5 -1.7 59
2018-05-11 15:00:00 24.3 13 Sudeste 31 Sur 0 1011 -1.7 55
2018-05-11 14:00:00 24.1 17 Sur 33 Sur 0 1011.6 -1.4 52
2018-05-11 13:00:00 23.9 16 Sur 33 Sur 0 1012.2 -1 54
2018-05-11 12:00:00 23.4 18 Sur 28 Sudeste 0 1012.7 -0.6 53
2018-05-11 11:00:00 22.5 11 Sur 22 Sur 0 1013 -0.2 55
2018-05-11 10:00:00 20.2 7 Sudoeste 15 Sudoeste 0 1013.2 0.3 60
2018-05-11 09:00:00 16.9 5 Noroeste 11 Oeste 0 1013.3 1 72
2018-05-11 08:00:00 14.1 6 Noroeste 12 Noroeste 0 1013.2 0.9 81
2018-05-11 07:00:00 13.5 8 Noroeste 14 Oeste 0 1012.9 0.5 83
2018-05-11 06:00:00 13.6 4 Oeste 13 Noroeste 0 1012.3 -0.2 85
2018-05-11 05:00:00 14.1 9 Oeste 15 Oeste 0 1012.3 -0.4 83
2018-05-11 04:00:00 14.6 4 Noroeste 7 Noroeste 0 1012.4 -0.3 82
2018-05-11 03:00:00 15.1 4 Noroeste 7 Noroeste 0 1012.5 -0.3 81
2018-05-11 02:00:00 15.5 0 Calma 9 Oeste 0 1012.7 0.2 80
2018-05-11 01:00:00 16.4 6 Sudoeste 10 Sudoeste 0 1012.7 0.7 80
2018-05-11 00:00:00 16.8 4 Sudoeste 8 Sudoeste 0 1012.8 1.3 77
2018-05-10 23:00:00 17.2 0 Calma 5 Sudoeste 0 1012.5 1.4 76
2018-05-10 22:00:00 17.8 4 Sur 9 Sur 0 1012 1.6 74
2018-05-10 21:00:00 18.6 6 Sur 16 Sur 0 1011.5 1.3 71
2018-05-10 20:00:00 19.8 10 Sur 19 Sur 0 1011.1 1.1 70
2018-05-10 19:00:00 20.8 9 Sudeste 17 Sur 0 1010.4 0.4 63
2018-05-10 18:00:00 22.1 9 Sudeste 19 Sudeste 0 1010.2 0.3 57
2018-05-10 17:00:00 22.6 10 Sudeste 21 Sur 0 1010 0.2 53
2018-05-10 16:00:00 22.1 11 Sudeste 24 Este 0 1010 0.7 45
2018-05-10 15:00:00 22.5 11 Sudeste 24 Sudeste 0 1009.9 0.9 47
2018-05-10 14:00:00 21.8 10 Sudeste 21 Sudeste 0 1009.8 1.2 60
2018-05-10 13:00:00 24 12 Sudeste 22 Sur 0 1009.3 0.9 56
2018-05-10 12:00:00 23.8 11 Sudeste 26 Este 0 1009 1.3 51
2018-05-10 11:00:00 23.1 6 Sur 15 Este 0 1008.6 1.7 51
2018-05-10 10:00:00 21 5 Sudeste 10 Sur 0 1008.4 2.5 56
2018-05-10 09:00:00 17.7 2 Sudoeste 8 Sudoeste 0 1007.7 2.2 74
2018-05-10 08:00:00 16.9 5 Oeste 15 Oeste 0 1006.9 1.6 86
2018-05-10 07:00:00 16.5 3 Noroeste 6 Norte 0 1005.9 1.3 90
2018-05-10 06:00:00 16.9 2 Noroeste 4 Sur 0 1005.5 1 91
2018-05-10 05:00:00 16.5 2 Sur 5 Sudoeste 0 1005.3 0.7 86
2018-05-10 04:00:00 16.6 0 Calma 6 Noroeste 0 1004.6 -0.4 90
2018-05-10 03:00:00 16.7 3 Noroeste 6 Norte 0 1004.5 -0.5 90
2018-05-10 02:00:00 17 3 Noroeste 8 Noroeste 0 1004.6 0.1 91
2018-05-10 01:00:00 17.5 4 Noroeste 8 Norte 0 1005 1.2 90
2018-05-10 00:00:00 17.6 3 Sudeste 12 Sudeste 0 1005 1.5 90
2018-05-09 23:00:00 17.8 3 Nordeste 9 Nordeste 0 1004.5 1.4 89
2018-05-09 22:00:00 18.5 5 Este 10 Sudeste 0 1003.8 0.9 85
2018-05-09 21:00:00 19.3 6 Sudeste 13 Este 0 1003.5 0.6 81
2018-05-09 20:00:00 20.6 5 Este 17 Este 0 1003.1 0.1 73
2018-05-09 19:00:00 21.5 10 Este 18 Sudeste 0 1002.9 -0.2 62
2018-05-09 18:00:00 22.5 9 Sudeste 21 Este 0 1002.9 -0.5 60
2018-05-09 17:00:00 23.3 12 Sudeste 26 Este 0 1003 -0.9 55
2018-05-09 16:00:00 23.7 12 Sudeste 24 Este 0 1003.1 -1.1 48
2018-05-09 15:00:00 24.4 11 Sudeste 22 Este 0 1003.4 -1 49
2018-05-09 14:00:00 23.2 13 Sudeste 26 Este 0 1003.9 -0.7 51
2018-05-09 13:00:00 23.5 8 Sudeste 22 Este 0 1004.2 -0.4 48
2018-05-09 12:00:00 22.8 10 Sudeste 23 Este 0 1004.4 -0.2 54
2018-05-09 11:00:00 22.1 13 Sudeste 22 Este 0 1004.6 0.5 57
2018-05-09 10:00:00 21.8 8 Este 17 Sudeste 0 1004.6 0.9 50
2018-05-09 09:00:00 19.2 5 Norte 11 Norte 0 1004.6 1.1 73
2018-05-09 08:00:00 16.2 7 Noroeste 15 Noroeste 0 1004.1 0.3 76
2018-05-09 07:00:00 16.1 11 Oeste 17 Noroeste 0 1003.7 -0.6 75
2018-05-09 06:00:00 16 10 Oeste 21 Oeste 0 1003.5 -1.1 79
2018-05-09 05:00:00 16.2 12 Oeste 21 Oeste 0 1003.8 -1.6 83
2018-05-09 04:00:00 16.6 7 Noroeste 13 Oeste 0 1004.3 -0.8 85
2018-05-09 03:00:00 17.2 9 Oeste 18 Noroeste 0 1004.6 -0.6 88
2018-05-09 02:00:00 17.8 9 Oeste 17 Oeste 0 1005.4 0.2 86
2018-05-09 01:00:00 18.4 8 Oeste 16 Oeste 0 1005.1 -0.1 86
2018-05-09 00:00:00 17.9 9 Oeste 15 Oeste 0 1005.2 0.1 85
2018-05-08 23:00:00 18 7 Noroeste 12 Oeste 0 1005.2 0.6 79
2018-05-08 22:00:00 18.1 3 Noroeste 5 Sur 0 1005.2 0.5 68
2018-05-08 21:00:00 19.2 4 Sur 10 Sur 0 1005.1 0.3 65
2018-05-08 20:00:00 20.7 6 Sur 11 Sur 0 1004.6 -0.6 65
2018-05-08 19:00:00 21 8 Sur 14 Sur 0 1004.7 -1.2 70
2018-05-08 18:00:00 20.8 4 Sudeste 7 Sudeste 0 1004.8 -1 74
2018-05-08 17:00:00 20.2 0 Calma 9 Sudeste 0.6 1005.2 -0.7 70
2018-05-08 16:00:00 20.6 4 Nordeste 16 Sudeste 0.2 1005.9 -0.1 67
2018-05-08 15:00:00 22.5 8 Este 15 Sudeste 0 1005.8 -0.1 59
2018-05-08 14:00:00 20.2 5 Este 27 Este 0 1005.9 -0.1 75
2018-05-08 13:00:00 22.5 14 Este 23 Sudeste 0 1006 -0.1 57
2018-05-08 12:00:00 22.8 4 Este 10 Nordeste 0 1005.9 -0.2 53
2018-05-08 11:00:00 21.2 4 Norte 9 Sudoeste 0 1006 0.1 57
2018-05-08 10:00:00 19.4 6 Oeste 13 Sudoeste 0 1006.1 0.1 65
2018-05-08 09:00:00 17 3 Noroeste 9 Oeste 0 1006.1 0.1 74
2018-05-08 08:00:00 15.6 3 Noroeste 7 Oeste 0 1005.9 -0.5 79
2018-05-08 07:00:00 14.3 2 Sudoeste 6 Noroeste 0 1006 -0.6 85
2018-05-08 06:00:00 14.4 6 Oeste 8 Oeste 0 1006 -1 84
2018-05-08 05:00:00 14.7 0 Calma 4 Noroeste 0 1006.4 -1.2 85
2018-05-08 04:00:00 15.1 3 Noroeste 6 Noroeste 0 1006.6 -1.5 86
2018-05-08 03:00:00 15.7 4 Sudoeste 10 Sur 0 1007 -1 88
2018-05-08 02:00:00 15.8 7 Sudoeste 11 Sudoeste 0 1007.6 -0.4 89
2018-05-08 01:00:00 16 5 Sudoeste 11 Sudoeste 0 1008.1 0.3 87
2018-05-08 00:00:00 16.3 0 Calma 8 Sudoeste 0 1008 0.2 85
2018-05-07 23:00:00 16.5 5 Sudoeste 8 Sudoeste 0 1008 0.3 85
2018-05-07 22:00:00 16.9 6 Sudoeste 11 Sur 0 1007.8 0.1 84
2018-05-07 21:00:00 18.9 4 Sur 11 Este 0 1007.8 -0.4 73
2018-05-07 20:00:00 20.6 8 Sur 12 Sur 0 1007.7 -0.7 65
2018-05-07 19:00:00 21.9 6 Sur 13 Este 0 1007.7 -1.3 58
2018-05-07 18:00:00 22.3 6 Sudeste 15 Este 0 1008.2 -1.5 55
2018-05-07 17:00:00 22.2 7 Sudeste 18 Sudeste 0 1008.4 -1.7 56
2018-05-07 16:00:00 22.4 9 Sudeste 21 Sudeste 0 1009 -- 57
2018-05-07 15:00:00 22.4 9 Sudeste 24 Sur 0 1009.7 -- 59
2018-05-07 14:00:00 22.3 12 Sudeste -- -- -- 1010.1 -- 59
2018-05-07 13:00:00 -- -- -- -- -- -- -- -- --
2018-05-07 12:00:00 -- -- -- -- -- -- -- -- --
2018-05-07 11:00:00 -- -- -- -- -- -- -- -- --
2018-05-07 10:00:00 19.3 5 Sudeste 11 Este 0 1010.5 0.2 68
2018-05-07 09:00:00 16.3 4 Norte 12 Oeste 0 1010.4 0.2 76
2018-05-07 08:00:00 13.4 5 Noroeste 12 Oeste 0 1010.3 -0.2 86
2018-05-07 07:00:00 12.8 6 Oeste 11 Oeste 0 1010.3 -0.5 88
2018-05-07 06:00:00 13.1 3 Noroeste 9 Oeste 0 1010.2 -0.9 87
2018-05-07 05:00:00 13.5 5 Noroeste 8 Oeste 0 1010.5 -0.8 86
2018-05-07 04:00:00 13.9 3 Oeste 8 Oeste 0 1010.8 -0.6 88
2018-05-07 03:00:00 14.1 3 Noroeste 7 Oeste 0 1011.1 -0.7 86
2018-05-07 02:00:00 15.1 2 Norte 10 Oeste 0 1011.3 -0.4 81
2018-05-07 01:00:00 15.4 4 Noroeste 9 Noroeste 0 1011.4 0.1 77
2018-05-07 00:00:00 16.1 0 Calma 6 Sur 0 1011.8 0.7 72
2018-05-06 23:00:00 17.1 2 Sur 5 Este 0 1011.7 0.6 67
2018-05-06 22:00:00 18.2 3 Nordeste 5 Nordeste 0 1011.3 0.1 63
2018-05-06 21:00:00 18.7 4 Nordeste 10 Norte 0 1011.1 -0.1 60
2018-05-06 20:00:00 19.4 4 Nordeste 13 Nordeste 0 1011.1 -0.1 58
2018-05-06 19:00:00 20.1 5 Este 15 Este 0 1011.2 -0.3 57
2018-05-06 18:00:00 20.1 6 Nordeste 22 Este 0 1011.2 -0.2 59
2018-05-06 17:00:00 20.3 8 Este 24 Este 0 1011.2 -0.4 57
2018-05-06 16:00:00 22.1 12 Este 25 Este 0 1011.5 -0.2 50
2018-05-06 15:00:00 23.8 9 Este 19 Este 0 1011.4 -0.3 43
2018-05-06 14:00:00 24.4 11 Sur 21 Este 0 1011.6 -0.1 43
2018-05-06 13:00:00 25 10 Sudeste 20 Sur 0 1011.7 0.1 40
2018-05-06 12:00:00 24.7 5 Sur 11 Sudeste 0 1011.7 0 39
2018-05-06 11:00:00 22.8 4 Sudoeste 16 Noroeste 0 1011.7 -0.1 44
2018-05-06 10:00:00 20 11 Oeste 19 Oeste 0 1011.6 0 50
2018-05-06 09:00:00 16.9 12 Oeste 19 Oeste 0 1011.7 0.5 59
2018-05-06 08:00:00 15.8 13 Oeste 20 Oeste 0 1011.8 0.4 63
2018-05-06 07:00:00 15.5 9 Oeste 16 Oeste 0 1011.6 0.3 65
2018-05-06 06:00:00 15.8 8 Oeste 17 Oeste 0 1011.2 -0.4 64
2018-05-06 05:00:00 15.8 10 Oeste 18 Oeste 0 1011.4 -0.6 66
2018-05-06 04:00:00 15.6 9 Oeste 15 Oeste 0 1011.3 -1 67
2018-05-06 03:00:00 15.3 9 Noroeste 15 Oeste 0 1011.6 -0.9 70
2018-05-06 02:00:00 15.7 10 Oeste 15 Oeste 0 1012 -0.4 70
2018-05-06 01:00:00 16.2 8 Noroeste 13 Oeste 0 1012.3 0.1 69
2018-05-06 00:00:00 16.4 9 Oeste 13 Oeste 0 1012.5 0.7 69
2018-05-05 23:00:00 16.9 5 Noroeste 12 Oeste 0 1012.4 1 66
2018-05-05 22:00:00 16.9 3 Sudoeste 5 Sudoeste 0 1012.2 0.9 65
2018-05-05 21:00:00 17.8 2 Sur 7 Este 0 1011.8 0.5 62
2018-05-05 20:00:00 18.5 4 Nordeste 13 Sudeste 0 1011.4 0.5 59
2018-05-05 19:00:00 19.6 6 Este 15 Este 0 1011.3 0.4 55
2018-05-05 18:00:00 20.4 9 Este 24 Este 0 1011.3 0.5 50
2018-05-05 17:00:00 21.9 10 Este 22 Este 0 1010.9 0.5 41
2018-05-05 16:00:00 21.2 7 Este 19 Este 0 1010.9 1.1 42
2018-05-05 15:00:00 20.1 12 Este 24 Este 0 1010.8 1.1 51
2018-05-05 14:00:00 20.5 13 Sudeste 21 Este 0 1010.4 0.7 50
2018-05-05 13:00:00 21.9 10 Este 22 Este 0 1009.8 0.3 42
2018-05-05 12:00:00 22 10 Este 17 Sudeste 0 1009.7 0.2 40
2018-05-05 11:00:00 20.9 9 Sudeste 15 Sudeste 0 1009.7 0.4 45
2018-05-05 10:00:00 18.5 3 Nordeste 8 Norte 0 1009.5 0.8 52
2018-05-05 09:00:00 15.8 3 Noroeste 9 Noroeste 0 1009.5 0.7 66
2018-05-05 08:00:00 14.6 3 Noroeste 14 Oeste 0 1009.3 0.7 69
2018-05-05 07:00:00 14 6 Oeste 13 Noroeste 0 1008.7 -0.3 71
2018-05-05 06:00:00 13.7 6 Noroeste 12 Noroeste 0 1008.8 -0.2 73
2018-05-05 05:00:00 13.7 5 Noroeste 11 Noroeste 0 1008.6 -0.7 73
2018-05-05 04:00:00 13.2 4 Noroeste 8 Oeste 0 1009 -0.4 77
2018-05-05 03:00:00 13.5 5 Noroeste 11 Oeste 0 1009 -0.6 78
2018-05-05 02:00:00 14.4 6 Oeste 13 Oeste 0 1009.3 -0.1 75
2018-05-05 01:00:00 14.6 2 Oeste 9 Sudoeste 0 1009.4 0.4 80
2018-05-05 00:00:00 15.1 3 Sudoeste 10 Sudoeste 0 1009.6 1 79
2018-05-04 23:00:00 15.4 5 Oeste 15 Noroeste 0 1009.4 1.1 74
2018-05-04 22:00:00 15.1 9 Oeste 13 Noroeste 0 1009 0.5 77
2018-05-04 21:00:00 15.3 4 Noroeste 13 Sudoeste 0 1008.6 0.6 77
2018-05-04 20:00:00 15.4 8 Sudoeste 12 Sudoeste 0 1008.3 1.3 75
2018-05-04 19:00:00 16 6 Sur 17 Sudeste 0.2 1008.5 1.5 75
2018-05-04 18:00:00 17.7 9 Sudeste 16 Sur 0 1008 0.8 64
2018-05-04 17:00:00 18.3 11 Sur 19 Sur 0 1007 -0.1 53
2018-05-04 16:00:00 18.6 12 Sur 22 Sur 0 1007 -0.2 49
2018-05-04 15:00:00 19.9 10 Sur 21 Sudeste 0 1007.2 0.2 40
2018-05-04 14:00:00 20.7 7 Sudeste 18 Sudeste 0 1007.1 0.1 36
2018-05-04 13:00:00 19.7 4 Nordeste 15 Noroeste 0 1007.2 0.3 34
2018-05-04 12:00:00 18.9 8 Noroeste 22 Oeste 0 1007 0.4 36
2018-05-04 11:00:00 17.6 10 Noroeste 24 Oeste 0 1007 0.8 39
2018-05-04 10:00:00 16.1 11 Noroeste 23 Oeste 0 1006.9 1.2 42
2018-05-04 09:00:00 14.9 14 Oeste 24 Oeste 0 1006.6 1.1 43
2018-05-04 08:00:00 13.7 13 Oeste 24 Oeste 0 1006.2 0.4 46
2018-05-04 07:00:00 13.2 13 Oeste 28 Oeste 0 1005.7 -0.2 47
2018-05-04 06:00:00 13.3 18 Oeste 28 Oeste 0 1005.5 -0.5 46
2018-05-04 05:00:00 13.6 16 Oeste 26 Noroeste 0 1005.8 -0.7 46
2018-05-04 04:00:00 14 12 Oeste 26 Oeste 0 1005.9 -0.8 45
2018-05-04 03:00:00 14.6 11 Noroeste 21 Noroeste 0 1006 -0.6 44
2018-05-04 02:00:00 14.9 13 Oeste 20 Oeste 0 1006.5 -0.2 44
2018-05-04 01:00:00 15.8 10 Noroeste 23 Noroeste 0 1006.7 0.7 43
2018-05-04 00:00:00 16.8 9 Noroeste 23 Noroeste 0 1006.6 1.2 40
2018-05-03 23:00:00 17.2 6 Noroeste 17 Noroeste 0 1006.7 2.2 42
2018-05-03 22:00:00 16.8 4 Este 10 Sudoeste 0 1006 2 74
2018-05-03 21:00:00 17.6 6 Sur 19 Sur 0 1005.4 1.8 68
2018-05-03 20:00:00 19.2 12 Sur 23 Sur 0 1004.5 1.1 59
2018-05-03 19:00:00 20.3 10 Sur 21 Sur 0 1004 0.2 57
2018-05-03 18:00:00 21.9 10 Sur 19 Sudeste 0 1003.6 -0.7 42
2018-05-03 17:00:00 22.6 12 Sudeste 23 Este 0 1003.4 -1.3 39
2018-05-03 16:00:00 24 14 Sur 23 Sur 0 1003.8 -1 30
2018-05-03 15:00:00 23.9 14 Sudeste 28 Sudeste 0 1004.3 -0.6 31
2018-05-03 14:00:00 22.9 14 Sudeste 27 Sur 0 1004.7 0.1 39
2018-05-03 13:00:00 23.7 13 Sudeste 25 Sur 0 1004.8 0 35
2018-05-03 12:00:00 23.3 13 Sudeste 27 Sudeste 0 1004.9 -0.1 33
2018-05-03 11:00:00 23.3 6 Sudoeste 17 Sudoeste 0 1004.6 -0.4 30
2018-05-03 10:00:00 21.3 5 Sudoeste 21 Nordeste 0 1004.8 0.3 35
2018-05-03 09:00:00 17.3 4 Sur 10 Sur 0 1005 0.4 48
2018-05-03 08:00:00 13.9 3 Oeste 9 Nordeste 0 1005 0.1 59
2018-05-03 07:00:00 13.4 4 Norte 8 Noroeste 0 1004.5 -0.7 59
2018-05-03 06:00:00 13.3 6 Noroeste 10 Norte 0 1004.6 -1 59
2018-05-03 05:00:00 14.2 3 Sudeste 12 Noroeste 0 1004.9 -1.2 55
2018-05-03 04:00:00 15 3 Norte 8 Norte 0 1005.2 -0.9 50
2018-05-03 03:00:00 15.4 5 Oeste 13 Norte 0 1005.6 -0.5 47
2018-05-03 02:00:00 15.5 5 Noroeste 10 Noroeste 0 1006.1 0.1 46
2018-05-03 01:00:00 15.5 5 Noroeste 17 Noroeste 0 1006.1 0.5 44
2018-05-03 00:00:00 14.6 10 Oeste 16 Oeste 0 1006.1 0.9 47
2018-05-02 23:00:00 15.1 6 Noroeste 10 Noroeste 0 1006 0.9 50
2018-05-02 22:00:00 16.6 3 Norte 7 Sur 0 1005.6 0.5 64
2018-05-02 21:00:00 17.5 3 Sur 9 Sur 0 1005.2 -0.1 58
2018-05-02 20:00:00 18.8 6 Sur 19 Sur 0 1005.1 0 43
2018-05-02 19:00:00 19.8 10 Sur 19 Sur 0 1005.1 -0.4 46
2018-05-02 18:00:00 21 11 Sur 21 Sur 0 1005.3 -0.3 31
2018-05-02 17:00:00 22.2 9 Sudeste 19 Este 0 1005.1 -0.6 21
2018-05-02 16:00:00 22.8 13 Sudeste 25 Sur 0 1005.5 -0.8 26
2018-05-02 15:00:00 24.8 13 Sur 26 Sur 0 1005.6 -1.2 21
2018-05-02 14:00:00 23.9 15 Sur 28 Sur 0 1005.7 -1.5 22
2018-05-02 13:00:00 22.3 15 Sur 26 Sur 0 1006.3 -1 25
2018-05-02 12:00:00 22.2 11 Sur 20 Sur 0 1006.8 -0.7 26
2018-05-02 11:00:00 20.3 7 Sur 18 Sur 0 1007.2 -0.4 27
2018-05-02 10:00:00 16.8 7 Oeste 16 Noroeste 0 1007.3 0 37
2018-05-02 09:00:00 12.5 11 Oeste 22 Oeste 0 1007.5 0 50
2018-05-02 08:00:00 9.5 12 Oeste 21 Oeste 0 1007.6 -0.2 71
2018-05-02 07:00:00 8.6 12 Oeste 17 Oeste 0 1007.3 -0.7 72
2018-05-02 06:00:00 9.5 10 Oeste 18 Oeste 0 1007.5 -0.9 69
2018-05-02 05:00:00 9.4 11 Oeste 21 Noroeste 0 1007.8 -1.1 72
2018-05-02 04:00:00 9.7 8 Noroeste 17 Noroeste 0 1008 -1 74
2018-05-02 03:00:00 10.1 9 Oeste 15 Oeste 0 1008.4 -1 73
2018-05-02 02:00:00 10.6 10 Oeste 13 Oeste 0 1008.9 -0.7 72
2018-05-02 01:00:00 11.3 4 Noroeste 8 Oeste 0 1009 0.1 71
2018-05-02 00:00:00 12.9 0 Calma 8 Este 0 1009.4 1.4 66
2018-05-01 23:00:00 13.6 4 Sudeste 10 Este 0 1009.6 2.2 63
2018-05-01 22:00:00 13.6 4 Sudeste 9 Sur 0 1008.9 1.7 63
2018-05-01 21:00:00 14 5 Sur 12 Sudeste 0 1008 0.7 59
2018-05-01 20:00:00 14.9 7 Este 16 Sudeste 0 1007.4 0.3 55
2018-05-01 19:00:00 16.3 10 Sudeste 21 Sudeste 0 1007.2 0 46
2018-05-01 18:00:00 16.9 10 Sudeste 26 Este 0 1007.3 -0.3 45
2018-05-01 17:00:00 17.9 14 Sudeste 26 Este 0 1007.1 -0.7 44
2018-05-01 16:00:00 17.9 13 Este 24 Sudeste 0 1007.2 -1 41
2018-05-01 15:00:00 19.3 13 Sudeste 27 Este 0 1007.6 -0.8 39
2018-05-01 14:00:00 19.4 12 Sur 23 Sudeste 0 1007.8 -0.5 33
2018-05-01 13:00:00 18.3 13 Sudeste 25 Sudeste 0 1008.2 -0.1 34
2018-05-01 12:00:00 18 12 Este 28 Sudeste 0 1008.4 0.1 34
2018-05-01 11:00:00 16.8 8 Este 33 Norte 0 1008.3 0.2 34
2018-05-01 10:00:00 15.7 10 Norte 23 Norte 0 1008.3 0.6 36
2018-05-01 09:00:00 13.1 6 Noroeste 23 Noroeste 0 1008.3 0.9 45
2018-05-01 08:00:00 11.4 8 Noroeste 15 Oeste 0 1008.1 0.5 51
2018-05-01 07:00:00 11.5 7 Oeste 16 Oeste 0 1007.7 0.1 53
2018-05-01 06:00:00 11.6 10 Oeste 17 Oeste 0 1007.4 0.1 53
2018-05-01 05:00:00 12.2 12 Oeste 19 Oeste 0 1007.6 0 50
2018-05-01 04:00:00 12.9 5 Noroeste 21 Oeste 0 1007.6 0.1 48
2018-05-01 03:00:00 13 8 Noroeste 22 Noroeste 0 1007.3 0 47
2018-05-01 02:00:00 13.3 10 Noroeste 27 Noroeste 0 1007.6 0.5 45
2018-05-01 01:00:00 13.9 12 Norte 27 Norte 0 1007.5 0.6 44
2018-05-01 00:00:00 14.7 10 Norte 34 Nordeste 0 1007.3 1.3 49
2018-04-30 23:00:00 15.5 6 Noroeste 22 Sudoeste 0 1007.1 1.5 64
2018-04-30 22:00:00 15.4 12 Sudoeste 23 Sur 0 1006.9 1.6 68
2018-04-30 21:00:00 15.5 11 Sur 29 Sur 0 1006 1.2 69
2018-04-30 20:00:00 16.5 14 Sur 37 Sur 0 1005.6 0.5 57
2018-04-30 19:00:00 18.5 21 Sur 40 Sur 0 1005.3 -0.7 49
2018-04-30 18:00:00 20.5 9 Oeste 25 Sur 0 1004.8 -1.8 21
2018-04-30 17:00:00 21.5 8 Sudeste 21 Sur 0 1005.1 -1.9 22
2018-04-30 16:00:00 20.3 8 Norte 28 Oeste 0 1006 -1.6 21
2018-04-30 15:00:00 19.7 14 Oeste 30 Oeste 0 1006.6 -1.5 22
2018-04-30 14:00:00 20 12 Oeste 32 Oeste 0 1007 -1 22
2018-04-30 13:00:00 19.5 13 Oeste 28 Oeste 0 1007.6 -0.9 24
2018-04-30 12:00:00 18.5 14 Oeste 33 Oeste 0 1008.1 -0.8 27
2018-04-30 11:00:00 16.4 15 Noroeste 32 Oeste 0 1008 -0.7 32
2018-04-30 10:00:00 14.9 14 Oeste 23 Oeste 0 1008.5 0.5 39
2018-04-30 09:00:00 13.5 10 Noroeste 19 Oeste 0 1008.9 1 45
2018-04-30 08:00:00 10.5 11 Oeste 18 Noroeste 0 1008.7 0.8 56
2018-04-30 07:00:00 10.3 6 Oeste 14 Oeste 0 1008 0.2 57
2018-04-30 06:00:00 11.2 9 Oeste 15 Oeste 0 1007.9 0 54
2018-04-30 05:00:00 11 7 Sudoeste 19 Sudoeste 0 1007.9 -0.2 57
2018-04-30 04:00:00 12.3 10 Oeste 14 Oeste 0 1007.8 -0.2 53
2018-04-30 03:00:00 12.4 7 Sudoeste 10 Sudoeste 0 1007.9 0 51
2018-04-30 02:00:00 13.1 3 Oeste 10 Oeste 0 1008.1 0.4 50
2018-04-30 01:00:00 13.3 3 Noroeste 15 Noroeste 0 1008 1.3 47
2018-04-30 00:00:00 15 6 Oeste 16 Oeste 0 1007.9 2.9 43
2018-04-29 23:00:00 15.8 10 Oeste 24 Oeste 0 1007.7 4.2 39
2018-04-29 22:00:00 17.2 19 Oeste 41 Oeste 0 1006.7 3.9 34
2018-04-29 21:00:00 18 20 Sudoeste 38 Sudoeste 0 1005 3.2 32
2018-04-29 20:00:00 20 21 Oeste 38 Sudoeste 0 1003.5 1.9 27
2018-04-29 19:00:00 20.5 23 Oeste 55 Oeste 0 1002.8 1.6 27
2018-04-29 18:00:00 21.2 24 Oeste 49 Oeste 0 1001.8 0.5 25
2018-04-29 17:00:00 21.4 22 Oeste 51 Sudoeste 0 1001.6 0.3 27
2018-04-29 16:00:00 21.5 26 Sudoeste 48 Oeste 0 1001.2 0 27
2018-04-29 15:00:00 21 24 Oeste 52 Sudoeste 0 1001.3 0 30
2018-04-29 14:00:00 20.3 24 Sudoeste 46 Sudoeste 0 1001.3 0.6 30
2018-04-29 13:00:00 20.3 19 Sudoeste 50 Sudoeste 0 1001.2 1.1 32
2018-04-29 12:00:00 19.6 23 Oeste 42 Sudoeste 0 1001.3 1.3 32
2018-04-29 11:00:00 18.5 26 Sudoeste 41 Sudoeste 0 1000.7 0.9 35
2018-04-29 10:00:00 17.6 21 Sudoeste 36 Sudoeste 0 1000.1 1.3 41
2018-04-29 09:00:00 16.2 10 Sudoeste 21 Oeste 0 1000 1.4 54
2018-04-29 08:00:00 14.9 5 Sudoeste 13 Sudoeste 0 999.8 0.8 77
2018-04-29 07:00:00 15.1 6 Sudoeste 22 Sudoeste 0 998.8 -0.7 91
2018-04-29 06:00:00 14.9 5 Sur 12 Sudoeste 0 998.6 -1.3 94
2018-04-29 05:00:00 15 4 Sur 7 Sudoeste 0 999 -1.3 94
2018-04-29 04:00:00 15.6 3 Sudoeste 9 Oeste 0 999.5 -1.2 92
2018-04-29 03:00:00 16.2 5 Sudoeste 11 Sudoeste 0 999.9 -1.2 92
2018-04-29 02:00:00 16.3 3 Nordeste 8 Este 0 1000.3 -0.9 91
2018-04-29 01:00:00 16.5 2 Este 12 Este 0 1000.7 -0.8 89
2018-04-29 00:00:00 16.7 5 Este 12 Este 0 1001.1 0 90
2018-04-28 23:00:00 16.8 5 Este 17 Nordeste 0 1001.2 -0.7 90
2018-04-28 22:00:00 16.7 4 Este 14 Este 0 1001.5 -0.7 93
2018-04-28 21:00:00 17.1 13 Este 24 Nordeste 0.6 1001.1 -1.2 90
2018-04-28 20:00:00 18.1 7 Este 19 Este 0 1001.9 -0.7 79
2018-04-28 19:00:00 18.6 10 Este 24 Este 0 1002.2 -1 79
2018-04-28 18:00:00 19.5 12 Este 28 Sudeste 0 1002.3 -1.5 75
2018-04-28 17:00:00 20 18 Este 29 Sudeste 0 1002.6 -1.9 72
2018-04-28 16:00:00 21.3 11 Este 26 Este 0 1003.2 -1.9 66
2018-04-28 15:00:00 21.2 13 Este 28 Este 0 1003.8 -1.7 66
2018-04-28 14:00:00 21.1 12 Este 24 Este 0 1004.5 -1.3 68
2018-04-28 13:00:00 20.8 13 Este 21 Sudeste 0 1005.1 -0.8 70
2018-04-28 12:00:00 19.5 13 Sudeste 21 Este 0 1005.5 -0.3 78
2018-04-28 11:00:00 19.2 4 Sudeste 10 Sur 0 1005.8 0.1 76
2018-04-28 10:00:00 18.8 4 Sur 9 Sur 0 1005.9 0.6 80
2018-04-28 09:00:00 16.5 3 Sudoeste 7 Sudoeste 0 1005.8 0.6 88
2018-04-28 08:00:00 15.5 3 Sudoeste 9 Oeste 0 1005.7 0.2 89
2018-04-28 07:00:00 15.9 6 Oeste 10 Oeste 0 1005.3 -0.4 89
2018-04-28 06:00:00 16.5 4 Noroeste 8 Noroeste 0 1005.2 -1 88
2018-04-28 05:00:00 16.9 3 Nordeste 10 Norte 0 1005.5 -1.2 91
2018-04-28 04:00:00 17 4 Nordeste 9 Nordeste 0 1005.7 -0.6 90
2018-04-28 03:00:00 17.1 4 Nordeste 17 Este 0 1006.2 -0.1 91
2018-04-28 02:00:00 17.1 10 Este 17 Este 0 1006.7 0.2 93
2018-04-28 01:00:00 17 4 Este 13 Este 0 1006.3 -0.3 94
2018-04-28 00:00:00 17.1 3 Nordeste 9 Este 0 1006.3 0.3 93
2018-04-27 23:00:00 17.6 0 Calma 10 Sudeste 0 1006.5 1.8 90
2018-04-27 22:00:00 18.8 8 Sudeste 13 Este 0 1006.6 1.2 84
2018-04-27 21:00:00 20.4 6 Noroeste 15 Noroeste 0 1006 1 69
2018-04-27 20:00:00 19.5 8 Este 27 Nordeste 0.2 1004.7 0.1 81
2018-04-27 19:00:00 19.7 6 Nordeste 21 Sudeste 0 1005.4 1 74
2018-04-27 18:00:00 21.6 7 Este 15 Sudeste 0 1005 0.5 65
2018-04-27 17:00:00 22 8 Este 22 Este 0 1004.6 -0.6 58
2018-04-27 16:00:00 22.8 12 Sudeste 24 Este 0 1004.4 -1.2 56
2018-04-27 15:00:00 22.4 9 Este 23 Sudeste 0 1004.5 -1.6 62
2018-04-27 14:00:00 22.5 9 Este 23 Este 0 1005.2 -1.1 62
2018-04-27 13:00:00 22.5 9 Sudeste 20 Sudeste 0 1005.6 -0.8 60
2018-04-27 12:00:00 21.9 9 Este 19 Sudeste 0 1006.1 -0.4 61
2018-04-27 11:00:00 20.8 5 Sudeste 12 Este 0 1006.3 -0.3 67
2018-04-27 10:00:00 18.4 4 Este 10 Este 0 1006.4 0.1 76
2018-04-27 09:00:00 15.8 4 Oeste 9 Oeste 0 1006.5 0.1 84
2018-04-27 08:00:00 14.2 3 Noroeste 8 Oeste 0 1006.6 -0.1 89
2018-04-27 07:00:00 14.1 4 Noroeste 7 Noroeste 0 1006.3 -0.8 90
2018-04-27 06:00:00 14.1 2 Norte 5 Oeste 0 1006.4 -1.5 90
2018-04-27 05:00:00 14.6 3 Noroeste 6 Noroeste 0 1006.7 -2.1 88
2018-04-27 04:00:00 15.5 3 Nordeste 6 Nordeste 0 1007.1 -2.4 92
2018-04-27 03:00:00 15.4 4 Nordeste 6 Nordeste 0 1007.9 -1.8 90
2018-04-27 02:00:00 15.3 0 Calma 5 Sudoeste 0 1008.8 -1.4 91
2018-04-27 01:00:00 15.4 2 Sudoeste 10 Sur 0 1009.5 -0.6 89
2018-04-27 00:00:00 15.8 4 Sudoeste 8 Sudoeste 0 1009.7 -0.3 90
2018-04-26 23:00:00 16.3 3 Sur 6 Nordeste 0 1010.2 0.4 87
2018-04-26 22:00:00 16.7 3 Nordeste 9 Este 0 1010.1 0.3 85
2018-04-26 21:00:00 17.4 7 Sudeste 15 Sur 0 1010 0.1 80
2018-04-26 20:00:00 18.7 8 Sur 19 Sudeste 0 1009.8 -0.3 75
2018-04-26 19:00:00 19.6 10 Sur 27 Sur 0 1009.8 -1 68
2018-04-26 18:00:00 20.4 17 Sur 29 Sur 0 1009.9 -1.3 66
2018-04-26 17:00:00 21.7 15 Sur 28 Sur 0 1010.1 -1.1 63
2018-04-26 16:00:00 22.4 16 Sur 31 Sur 0 1010.8 -1 60
2018-04-26 15:00:00 23 13 Sur 25 Sudeste 0 1011.2 -1.1 59
2018-04-26 14:00:00 22.5 11 Sudeste 22 Este 0 1011.2 -1.3 56
2018-04-26 13:00:00 22.7 10 Sudeste 22 Este 0 1011.8 -0.8 53
2018-04-26 12:00:00 22.8 9 Este 20 Este 0 1012.3 -0.3 50
2018-04-26 11:00:00 21.8 7 Este 20 Este 0 1012.5 0.8 48
2018-04-26 10:00:00 20.5 6 Nordeste 10 Nordeste 0 1012.6 1.9 48
2018-04-26 09:00:00 18.1 4 Norte 9 Nordeste 0 1012.6 2.3 63
2018-04-26 08:00:00 15.6 3 Sudoeste 7 Sudoeste 0 1011.7 1.2 65
2018-04-26 07:00:00 15.4 0 Calma 6 Oeste 0 1010.7 -0.1 64
2018-04-26 06:00:00 15.5 0 Calma 7 Noroeste 0 1010.3 -1.2 63
2018-04-26 05:00:00 16.2 3 Noroeste 10 Oeste 0 1010.5 -1.6 59
2018-04-26 04:00:00 16.7 5 Noroeste 10 Oeste 0 1010.8 -1.4 57
2018-04-26 03:00:00 17.2 5 Noroeste 15 Oeste 0 1011.5 -0.8 56
2018-04-26 02:00:00 16.9 5 Noroeste 9 Norte 0 1012.1 0 58
2018-04-26 01:00:00 18 3 Nordeste 8 Este 0 1012.2 0.4 82
2018-04-26 00:00:00 18.9 4 Este 10 Este 0 1012.3 1.5 69
2018-04-25 23:00:00 19.4 5 Nordeste 9 Este 0 1012.1 2.2 53
2018-04-25 22:00:00 20.1 4 Nordeste 15 Sudeste 0 1011.8 1.6 46
2018-04-25 21:00:00 21.9 5 Este 13 Nordeste 0 1010.8 0.2 34
2018-04-25 20:00:00 22.2 6 Nordeste 13 Nordeste 0 1009.9 -1.1 35
2018-04-25 19:00:00 22.4 8 Nordeste 17 Este 0 1010.2 -1.2 33
2018-04-25 18:00:00 23.2 8 Este 20 Este 0 1010.6 -0.7 32
2018-04-25 17:00:00 22.9 6 Nordeste 21 Sudeste 0 1011 -0.3 40
2018-04-25 16:00:00 23.5 20 Este 31 Sudeste 0 1011.4 -0.4 43
2018-04-25 15:00:00 24.4 16 Este 27 Sudeste 0 1011.3 -0.4 37
2018-04-25 14:00:00 25.7 9 Este 28 Este 0 1011.3 -0.5 31
2018-04-25 13:00:00 25.5 12 Este 29 Sudeste 0 1011.8 0.1 35
2018-04-25 12:00:00 23.2 12 Nordeste 22 Nordeste 0 1011.7 0.2 45
2018-04-25 11:00:00 22.9 10 Este 16 Sudeste 0 1011.8 0.6 39
2018-04-25 10:00:00 19.9 2 Sur 15 Noroeste 0 1011.7 0.8 43
2018-04-25 09:00:00 17 8 Oeste 17 Oeste 0 1011.5 0.8 50
2018-04-25 08:00:00 14.3 10 Oeste 14 Oeste 0 1011.2 0.6 62
2018-04-25 07:00:00 13.9 6 Noroeste 18 Oeste 0 1010.9 0.2 63
2018-04-25 06:00:00 14.7 6 Noroeste 15 Oeste 0 1010.7 -0.5 60
2018-04-25 05:00:00 14.7 7 Noroeste 13 Noroeste 0 1010.6 -1.9 61
2018-04-25 04:00:00 15 7 Oeste 13 Oeste 0 1010.7 -1.2 59
2018-04-25 03:00:00 15.2 6 Noroeste 12 Noroeste 0 1011.2 -0.9 60
2018-04-25 02:00:00 15.6 5 Noroeste 12 Noroeste 0 1012.5 -0.1 60
2018-04-25 01:00:00 16.1 6 Noroeste 13 Oeste 0 1011.9 -0.6 61
2018-04-25 00:00:00 17.2 5 Noroeste 9 Oeste 0 1012.1 0.1 59
2018-04-24 23:00:00 17.9 4 Noroeste 8 Noroeste 0 1012.6 1 57
2018-04-24 22:00:00 19.2 3 Nordeste 6 Sudeste 0 1012.5 1.1 51
2018-04-24 21:00:00 19.8 3 Este 12 Este 0 1012 0.6 48
2018-04-24 20:00:00 20.6 6 Este 19 Este 0 1011.6 -0.2 50
2018-04-24 19:00:00 22.6 8 Este 27 Este 0 1011.4 -1.1 42
2018-04-24 18:00:00 23.9 10 Este 24 Este 0 1011.4 -1.8 34
2018-04-24 17:00:00 23.5 9 Este 23 Este 0 1011.8 -2 35
2018-04-24 16:00:00 24.7 14 Este 28 Este 0 1012.5 -1.3 31
2018-04-24 15:00:00 25 12 Este 27 Este 0 1013.2 -0.4 33
2018-04-24 14:00:00 23 8 Este 27 Este 0 1013.8 0.5 41
2018-04-24 13:00:00 23.8 10 Este 27 Nordeste 0 1013.8 0.3 38
2018-04-24 12:00:00 22.6 10 Este 28 Este 0 1013.6 -0.5 42
2018-04-24 11:00:00 22.1 6 Nordeste 15 Este 0 1013.3 -0.8 45
2018-04-24 10:00:00 20.4 6 Norte 13 Noroeste 0 1013.5 0.5 48
2018-04-24 09:00:00 17.4 7 Noroeste 17 Oeste 0 1014.1 1.4 59
2018-04-24 08:00:00 15.2 10 Oeste 18 Oeste 0 1014.1 1.2 65
2018-04-24 07:00:00 14.9 10 Oeste 16 Oeste 0 1013 0.2 66
2018-04-24 06:00:00 15.4 8 Noroeste 16 Oeste 0 1012.7 -0.3 63
2018-04-24 05:00:00 15.1 7 Oeste 10 Oeste 0 1012.9 -0.1 67
2018-04-24 04:00:00 15.1 4 Oeste 8 Norte 0 1012.8 -0.6 68
2018-04-24 03:00:00 16.1 4 Noroeste 10 Oeste 0 1013 -0.8 61
2018-04-24 02:00:00 16.4 7 Oeste 10 Oeste 0 1013 -1 62
2018-04-24 01:00:00 17.4 4 Noroeste 10 Oeste 0 1013.4 -0.2 59
2018-04-24 00:00:00 17.7 4 Noroeste 9 Oeste 0 1013.8 0.8 65